createdAt,value
2022-08-12T00:00:47.240Z,22.00
2022-08-12T00:03:33.006Z,22.00
2022-08-12T00:06:19.718Z,22.00
2022-08-12T00:09:06.177Z,21.90
2022-08-12T00:11:52.041Z,21.90
2022-08-12T00:14:37.980Z,21.80
2022-08-12T00:17:26.729Z,21.80
2022-08-12T00:20:12.642Z,21.70
2022-08-12T00:22:59.471Z,21.70
2022-08-12T00:26:21.126Z,21.60
2022-08-12T00:29:01.831Z,21.60
2022-08-12T00:31:47.402Z,21.50
2022-08-12T00:34:36.806Z,21.50
2022-08-12T00:37:23.503Z,21.50
2022-08-12T00:40:11.278Z,21.40
2022-08-12T00:42:41.696Z,21.40
2022-08-12T00:45:11.723Z,21.40
2022-08-12T00:47:41.796Z,21.40
2022-08-12T00:50:18.429Z,21.40
2022-08-12T00:52:47.565Z,21.40
2022-08-12T00:55:16.857Z,21.40
2022-08-12T00:57:48.548Z,21.30
2022-08-12T01:00:21.513Z,21.30
2022-08-12T01:02:52.703Z,21.30
2022-08-12T01:05:43.052Z,21.30
2022-08-12T01:08:29.195Z,21.30
2022-08-12T01:11:15.923Z,21.30
2022-08-12T01:13:48.969Z,21.20
2022-08-12T01:16:19.702Z,21.20
2022-08-12T01:18:47.972Z,21.10
2022-08-12T01:21:43.677Z,21.10
2022-08-12T01:24:34.378Z,21.00
2022-08-12T01:27:07.448Z,21.00
2022-08-12T01:29:43.884Z,20.90
2022-08-12T01:32:14.453Z,20.90
2022-08-12T01:34:51.022Z,20.90
2022-08-12T01:37:23.390Z,20.80
2022-08-12T01:40:31.275Z,20.80
2022-08-12T01:42:46.796Z,20.80
2022-08-12T01:45:17.489Z,20.80
2022-08-12T01:47:58.541Z,20.70
2022-08-12T01:50:37.460Z,20.70
2022-08-12T01:53:10.644Z,20.70
2022-08-12T01:55:46.410Z,20.70
2022-08-12T01:58:55.698Z,20.70
2022-08-12T02:01:34.320Z,20.70
2022-08-12T02:04:32.458Z,20.60
2022-08-12T02:07:27.684Z,20.60
2022-08-12T02:10:50.996Z,20.60
2022-08-12T02:13:48.717Z,20.50
2022-08-12T02:16:32.410Z,20.50
2022-08-12T02:19:23.157Z,20.50
2022-08-12T02:21:59.886Z,20.50
2022-08-12T02:24:35.326Z,20.40
2022-08-12T02:27:06.098Z,20.40
2022-08-12T02:29:36.016Z,20.40
2022-08-12T02:32:05.633Z,20.30
2022-08-12T02:34:35.040Z,20.30
2022-08-12T02:37:04.035Z,20.20
2022-08-12T02:39:34.698Z,20.20
2022-08-12T02:42:06.764Z,20.20
2022-08-12T02:44:41.555Z,20.20
2022-08-12T02:47:55.526Z,20.20
2022-08-12T02:50:00.613Z,20.10
2022-08-12T02:52:29.796Z,20.10
2022-08-12T02:55:04.994Z,20.10
2022-08-12T02:57:34.427Z,20.10
2022-08-12T03:00:09.223Z,20.00
2022-08-12T03:02:41.332Z,20.00
2022-08-12T03:05:12.600Z,20.00
2022-08-12T03:07:59.161Z,19.90
2022-08-12T03:10:37.160Z,19.90
2022-08-12T03:13:08.197Z,19.80
2022-08-12T03:15:40.425Z,19.80
2022-08-12T03:18:24.205Z,19.80
2022-08-12T03:20:57.424Z,19.80
2022-08-12T03:23:30.023Z,19.80
2022-08-12T03:26:01.801Z,19.80
2022-08-12T03:28:51.036Z,19.80
2022-08-12T03:31:22.783Z,19.80
2022-08-12T03:34:01.314Z,19.80
2022-08-12T03:36:32.420Z,19.80
2022-08-12T03:42:00.958Z,19.80
2022-08-12T03:44:53.098Z,19.70
2022-08-12T03:47:43.514Z,19.70
2022-08-12T03:50:29.695Z,19.70
2022-08-12T03:53:15.189Z,19.70
2022-08-12T03:56:01.404Z,19.70
2022-08-12T03:58:49.311Z,19.70
2022-08-12T04:01:18.306Z,19.70
2022-08-12T04:03:53.328Z,19.70
2022-08-12T04:06:35.067Z,19.70
2022-08-12T04:09:16.297Z,19.70
2022-08-12T04:12:03.863Z,19.60
2022-08-12T04:14:34.596Z,19.60
2022-08-12T04:17:05.342Z,19.60
2022-08-12T04:19:33.464Z,19.60
2022-08-12T04:22:03.642Z,19.60
2022-08-12T04:24:35.199Z,19.60
2022-08-12T04:27:07.823Z,19.60
2022-08-12T04:30:21.516Z,19.50
2022-08-12T04:32:26.772Z,19.50
2022-08-12T04:34:56.469Z,19.50
2022-08-12T04:37:24.605Z,19.50
2022-08-12T04:39:54.205Z,19.50
2022-08-12T04:42:23.736Z,19.50
2022-08-12T04:44:53.707Z,19.40
2022-08-12T04:47:23.275Z,19.40
2022-08-12T04:49:51.479Z,19.40
2022-08-12T04:52:19.882Z,19.40
2022-08-12T04:54:49.215Z,19.50
2022-08-12T04:57:17.340Z,19.50
2022-08-12T04:59:48.063Z,19.50
2022-08-12T05:02:21.211Z,19.50
2022-08-12T05:04:52.528Z,19.50
2022-08-12T05:07:21.172Z,19.50
2022-08-12T05:10:00.569Z,19.40
2022-08-12T05:12:37.189Z,19.50
2022-08-12T05:15:16.842Z,19.50
2022-08-12T05:17:48.884Z,19.50
2022-08-12T05:20:19.861Z,19.50
2022-08-12T05:22:48.005Z,19.50
2022-08-12T05:25:18.486Z,19.60
2022-08-12T05:27:58.703Z,19.60
2022-08-12T05:30:27.601Z,19.60
2022-08-12T05:33:00.206Z,19.70
2022-08-12T05:35:29.044Z,19.70
2022-08-12T05:38:11.025Z,19.70
2022-08-12T05:40:39.270Z,19.80
2022-08-12T05:43:07.970Z,19.80
2022-08-12T05:45:38.343Z,19.80
2022-08-12T05:48:11.287Z,19.90
2022-08-12T05:50:39.544Z,19.90
2022-08-12T05:53:07.844Z,20.00
2022-08-12T05:55:36.860Z,20.00
2022-08-12T05:58:36.188Z,20.00
2022-08-12T06:02:09.528Z,20.10
2022-08-12T06:04:01.013Z,20.10
2022-08-12T06:06:29.817Z,20.10
2022-08-12T06:08:58.491Z,20.20
2022-08-12T06:11:27.436Z,20.20
2022-08-12T06:13:58.475Z,20.30
2022-08-12T06:16:27.803Z,20.30
2022-08-12T06:18:56.105Z,20.40
2022-08-12T06:21:25.777Z,20.40
2022-08-12T06:23:55.045Z,20.50
2022-08-12T06:26:23.409Z,20.50
2022-08-12T06:28:52.263Z,20.60
2022-08-12T06:31:26.141Z,20.70
2022-08-12T06:34:52.957Z,20.70
2022-08-12T06:36:47.543Z,20.80
2022-08-12T06:39:17.787Z,20.90
2022-08-12T06:42:32.102Z,20.90
2022-08-12T06:44:52.059Z,21.00
2022-08-12T06:47:22.045Z,21.10
2022-08-12T06:49:52.852Z,21.20
2022-08-12T06:52:24.872Z,21.20
2022-08-12T06:54:55.381Z,21.30
2022-08-12T06:58:07.765Z,21.30
2022-08-12T07:00:22.762Z,21.40
2022-08-12T07:03:16.095Z,21.40
2022-08-12T07:05:47.181Z,21.50
2022-08-12T07:08:17.115Z,21.60
2022-08-12T07:10:54.877Z,21.60
2022-08-12T07:13:23.913Z,21.70
2022-08-12T07:15:55.873Z,21.80
2022-08-12T07:18:30.371Z,21.80
2022-08-12T07:21:01.371Z,21.90
2022-08-12T07:23:33.465Z,21.90
2022-08-12T07:26:02.986Z,22.00
2022-08-12T07:28:34.877Z,22.10
2022-08-12T07:31:07.981Z,22.20
2022-08-12T07:33:39.520Z,22.30
2022-08-12T07:36:10.262Z,22.40
2022-08-12T07:38:44.062Z,22.40
2022-08-12T07:41:16.088Z,22.50
2022-08-12T07:43:53.348Z,22.60
2022-08-12T07:46:32.819Z,22.60
2022-08-12T07:49:02.988Z,22.70
2022-08-12T07:51:31.598Z,22.80
2022-08-12T07:54:03.314Z,22.80
2022-08-12T07:56:33.042Z,22.90
2022-08-12T07:59:03.243Z,23.00
2022-08-12T08:01:32.887Z,23.10
2022-08-12T08:04:19.583Z,23.20
2022-08-12T08:06:49.763Z,23.30
2022-08-12T08:09:22.320Z,23.30
2022-08-12T08:12:08.980Z,23.40
2022-08-12T08:14:37.394Z,23.50
2022-08-12T08:17:06.471Z,23.60
2022-08-12T08:20:02.935Z,23.70
2022-08-12T08:22:33.452Z,23.80
2022-08-12T08:25:35.013Z,23.80
2022-08-12T08:28:03.127Z,23.90
2022-08-12T08:30:32.874Z,24.00
2022-08-12T08:33:02.434Z,24.10
2022-08-12T08:35:47.644Z,24.20
2022-08-12T08:38:31.851Z,24.30
2022-08-12T08:42:17.517Z,24.30
2022-08-12T08:44:11.688Z,24.40
2022-08-12T08:46:40.943Z,24.50
2022-08-12T08:49:09.392Z,24.70
2022-08-12T08:51:38.949Z,24.80
2022-08-12T08:54:08.875Z,24.90
2022-08-12T08:56:45.402Z,25.00
2022-08-12T08:59:14.634Z,25.20
2022-08-12T09:01:44.453Z,25.20
2022-08-12T09:05:08.525Z,25.50
2022-08-12T09:07:16.998Z,25.70
2022-08-12T09:10:02.842Z,26.00
2022-08-12T09:12:55.638Z,26.30
2022-08-12T09:15:35.310Z,26.60
2022-08-12T09:18:05.929Z,27.00
2022-08-12T09:20:38.703Z,27.40
2022-08-12T09:23:59.228Z,27.70
2022-08-12T09:26:04.030Z,28.10
2022-08-12T09:28:37.077Z,28.60
2022-08-12T09:32:07.611Z,29.00
2022-08-12T09:34:26.600Z,29.50
2022-08-12T09:37:00.234Z,29.80
2022-08-12T09:40:01.892Z,30.10
2022-08-12T09:42:43.511Z,30.50
2022-08-12T09:46:11.195Z,30.80
2022-08-12T09:48:20.478Z,31.10
2022-08-12T09:50:55.046Z,31.50
2022-08-12T09:53:36.246Z,31.70
2022-08-12T09:56:59.943Z,32.00
2022-08-12T09:59:01.962Z,32.20
2022-08-12T10:01:35.531Z,32.50
2022-08-12T10:04:21.182Z,32.70
2022-08-12T10:06:55.218Z,32.80
2022-08-12T10:09:28.678Z,32.80
2022-08-12T10:12:33.579Z,33.00
2022-08-12T10:15:02.691Z,33.20
2022-08-12T10:17:32.458Z,33.40
2022-08-12T10:20:01.885Z,33.50
2022-08-12T10:22:39.450Z,33.70
2022-08-12T10:26:34.464Z,33.80
2022-08-12T10:28:40.914Z,33.80
2022-08-12T10:31:29.298Z,33.80
2022-08-12T10:34:25.899Z,33.90
2022-08-12T10:36:58.797Z,33.90
2022-08-12T10:40:03.232Z,33.90
2022-08-12T10:42:46.605Z,33.90
2022-08-12T10:45:18.230Z,33.80
2022-08-12T10:48:16.102Z,34.00
2022-08-12T10:51:01.762Z,34.10
2022-08-12T10:53:46.058Z,34.40
2022-08-12T10:56:16.432Z,34.50
2022-08-12T10:58:46.355Z,34.70
2022-08-12T11:01:50.374Z,34.60
2022-08-12T11:04:31.479Z,34.50
2022-08-12T11:07:09.553Z,34.50
2022-08-12T11:10:00.354Z,34.60
2022-08-12T11:12:54.986Z,34.50
2022-08-12T11:15:24.393Z,34.70
2022-08-12T11:18:18.575Z,34.80
2022-08-12T11:20:49.270Z,34.90
2022-08-12T11:23:35.633Z,35.00
2022-08-12T11:26:06.732Z,35.00
2022-08-12T11:28:37.888Z,34.90
2022-08-12T11:31:12.414Z,35.00
2022-08-12T11:34:06.623Z,35.10
2022-08-12T11:36:32.047Z,35.20
2022-08-12T11:39:05.071Z,35.30
2022-08-12T11:41:34.708Z,35.30
2022-08-12T11:44:36.271Z,35.30
2022-08-12T11:46:54.535Z,35.30
2022-08-12T11:49:30.754Z,35.30
2022-08-12T11:52:17.324Z,35.00
2022-08-12T11:54:54.683Z,35.00
2022-08-12T11:58:13.650Z,35.10
2022-08-12T12:03:01.543Z,35.20
2022-08-12T12:05:41.770Z,35.20
2022-08-12T12:08:38.489Z,35.20
2022-08-12T12:11:11.482Z,35.30
2022-08-12T12:14:07.836Z,35.30
2022-08-12T12:16:28.222Z,35.30
2022-08-12T12:18:58.392Z,35.30
2022-08-12T12:21:47.048Z,35.20
2022-08-12T12:24:15.014Z,35.20
2022-08-12T12:27:00.372Z,35.10
2022-08-12T12:30:19.517Z,34.80
2022-08-12T12:32:18.451Z,34.70
2022-08-12T12:36:05.389Z,34.80
2022-08-12T12:38:03.940Z,34.80
2022-08-12T12:40:30.082Z,34.70
2022-08-12T12:43:05.519Z,34.50
2022-08-12T12:45:35.699Z,34.60
2022-08-12T12:48:05.995Z,34.60
2022-08-12T12:50:42.480Z,34.70
2022-08-12T12:54:06.335Z,34.70
2022-08-12T12:56:15.961Z,34.60
2022-08-12T12:58:46.956Z,34.40
2022-08-12T13:01:26.830Z,34.30
2022-08-12T13:04:01.978Z,34.40
2022-08-12T13:06:32.388Z,34.40
2022-08-12T13:09:03.769Z,34.50
2022-08-12T13:11:41.622Z,34.60
2022-08-12T13:14:28.198Z,34.60
2022-08-12T13:17:02.715Z,34.60
2022-08-12T13:19:43.409Z,34.50
2022-08-12T13:22:20.041Z,34.50
2022-08-12T13:24:51.952Z,34.40
2022-08-12T13:27:28.423Z,34.20
2022-08-12T13:30:11.516Z,34.10
2022-08-12T13:32:42.418Z,34.00
2022-08-12T13:35:19.212Z,33.80
2022-08-12T13:37:54.857Z,33.80
2022-08-12T13:40:25.406Z,33.70
2022-08-12T13:42:55.919Z,33.70
2022-08-12T13:45:25.883Z,33.70
2022-08-12T13:47:56.486Z,33.70
2022-08-12T13:50:29.861Z,33.70
2022-08-12T13:52:58.504Z,33.60
2022-08-12T13:55:30.969Z,33.30
2022-08-12T13:58:01.688Z,33.20
2022-08-12T14:00:34.029Z,33.20
2022-08-12T14:03:07.029Z,33.20
2022-08-12T14:05:39.067Z,33.20
2022-08-12T14:08:08.829Z,33.20
2022-08-12T14:10:50.939Z,33.30
2022-08-12T14:14:03.305Z,33.20
2022-08-12T14:16:37.586Z,33.20
2022-08-12T14:19:10.688Z,33.20
2022-08-12T14:22:00.562Z,33.20
2022-08-12T14:24:35.687Z,33.10
2022-08-12T14:27:09.287Z,33.20
2022-08-12T14:30:05.659Z,33.20
2022-08-12T14:32:35.924Z,33.10
2022-08-12T14:35:08.986Z,33.00
2022-08-12T14:37:56.266Z,32.90
2022-08-12T14:40:28.024Z,33.00
2022-08-12T14:42:57.206Z,33.00
2022-08-12T14:45:45.256Z,33.10
2022-08-12T14:48:18.508Z,33.10
2022-08-12T14:52:10.665Z,33.10
2022-08-12T14:55:18.205Z,33.00
2022-08-12T14:59:56.636Z,32.90
2022-08-12T15:02:21.209Z,32.90
2022-08-12T15:04:59.617Z,32.80
2022-08-12T15:07:49.444Z,32.70
2022-08-12T15:10:31.795Z,32.70
2022-08-12T15:13:07.092Z,32.60
2022-08-12T15:15:43.678Z,32.60
2022-08-12T15:18:15.725Z,32.50
2022-08-12T15:20:52.720Z,32.50
2022-08-12T15:23:24.073Z,32.50
2022-08-12T15:26:00.066Z,32.40
2022-08-12T15:28:33.115Z,32.40
2022-08-12T15:31:02.620Z,32.20
2022-08-12T15:33:45.435Z,32.20
2022-08-12T15:36:19.470Z,32.20
2022-08-12T15:39:05.510Z,32.10
2022-08-12T15:41:49.196Z,32.00
2022-08-12T15:44:41.590Z,32.00
2022-08-12T15:47:08.551Z,32.00
2022-08-12T15:49:54.918Z,32.00
2022-08-12T15:52:28.787Z,32.00
2022-08-12T15:55:04.885Z,32.00
2022-08-12T15:57:34.720Z,31.90
2022-08-12T16:00:07.090Z,31.80
2022-08-12T16:02:47.336Z,31.80
2022-08-12T16:06:11.457Z,31.60
2022-08-12T16:08:17.229Z,31.50
2022-08-12T16:10:48.743Z,31.40
2022-08-12T16:13:32.686Z,31.40
2022-08-12T16:16:12.168Z,31.30
2022-08-12T16:18:51.471Z,31.20
2022-08-12T16:21:50.556Z,31.10
2022-08-12T16:24:10.791Z,31.10
2022-08-12T16:26:39.749Z,31.00
2022-08-12T16:29:09.282Z,30.90
2022-08-12T16:31:44.923Z,30.80
2022-08-12T16:34:39.903Z,30.70
2022-08-12T16:37:07.360Z,30.60
2022-08-12T16:40:01.057Z,30.50
2022-08-12T16:42:28.534Z,30.40
2022-08-12T16:44:59.508Z,30.30
2022-08-12T16:47:29.000Z,30.20
2022-08-12T16:50:17.253Z,30.20
2022-08-12T16:52:49.246Z,30.20
2022-08-12T16:55:19.170Z,30.00
2022-08-12T16:57:49.512Z,30.00
2022-08-12T17:00:24.144Z,29.90
2022-08-12T17:02:58.135Z,29.80
2022-08-12T17:05:31.299Z,29.80
2022-08-12T17:08:01.194Z,29.80
2022-08-12T17:10:36.613Z,29.70
2022-08-12T17:13:10.092Z,29.60
2022-08-12T17:15:56.887Z,29.60
2022-08-12T17:18:45.453Z,29.50
2022-08-12T17:21:20.308Z,29.50
2022-08-12T17:24:10.502Z,29.50
2022-08-12T17:26:49.691Z,29.50
2022-08-12T17:29:32.008Z,29.40
2022-08-12T17:32:11.353Z,29.40
2022-08-12T17:34:58.415Z,29.30
2022-08-12T17:37:28.447Z,29.30
2022-08-12T17:40:15.054Z,29.20
2022-08-12T17:42:48.227Z,29.10
2022-08-12T17:45:24.459Z,29.10
2022-08-12T17:48:05.945Z,29.00
2022-08-12T17:50:36.857Z,29.00
2022-08-12T17:54:06.036Z,28.90
2022-08-12T17:56:27.804Z,28.90
2022-08-12T17:59:02.201Z,28.80
2022-08-12T18:01:34.882Z,28.80
2022-08-12T18:04:21.659Z,28.80
2022-08-12T18:06:52.219Z,28.70
2022-08-12T18:09:24.569Z,28.60
2022-08-12T18:12:24.204Z,28.60
2022-08-12T18:14:56.569Z,28.60
2022-08-12T18:17:27.994Z,28.60
2022-08-12T18:20:05.588Z,28.50
2022-08-12T18:22:40.908Z,28.40
2022-08-12T18:26:12.354Z,28.40
2022-08-12T18:28:16.960Z,28.30
2022-08-12T18:30:53.024Z,28.20
2022-08-12T18:33:25.760Z,28.20
2022-08-12T18:35:58.314Z,28.20
2022-08-12T18:38:28.054Z,28.10
2022-08-12T18:41:21.964Z,28.10
2022-08-12T18:44:06.113Z,28.00
2022-08-12T18:46:55.335Z,27.90
2022-08-12T18:49:39.356Z,27.80
2022-08-12T18:52:11.970Z,27.80
2022-08-12T18:54:48.891Z,27.70
2022-08-12T18:58:07.076Z,27.70
2022-08-12T19:00:20.931Z,27.50
2022-08-12T19:02:53.820Z,27.40
2022-08-12T19:05:54.447Z,27.30
2022-08-12T19:08:15.087Z,27.20
2022-08-12T19:10:50.676Z,27.10
2022-08-12T19:13:38.009Z,27.10
2022-08-12T19:16:11.579Z,27.00
2022-08-12T19:18:45.034Z,26.90
2022-08-12T19:21:16.791Z,26.90
2022-08-12T19:24:08.562Z,26.80
2022-08-12T19:26:36.592Z,26.70
2022-08-12T19:29:07.649Z,26.60
2022-08-12T19:31:44.740Z,26.60
2022-08-12T19:37:26.679Z,26.40
2022-08-12T19:40:09.045Z,26.40
2022-08-12T19:42:57.638Z,26.30
2022-08-12T19:45:43.653Z,26.20
2022-08-12T19:48:19.825Z,26.10
2022-08-12T19:50:53.048Z,26.00
2022-08-12T19:53:23.012Z,25.90
2022-08-12T19:55:53.809Z,25.90
2022-08-12T19:58:24.085Z,25.80
2022-08-12T20:00:54.421Z,25.80
2022-08-12T20:03:39.380Z,25.70
2022-08-12T20:06:15.462Z,25.60
2022-08-12T20:08:55.812Z,25.60
2022-08-12T20:12:11.933Z,25.50
2022-08-12T20:14:17.844Z,25.50
2022-08-12T20:16:52.580Z,25.40
2022-08-12T20:19:52.678Z,25.30
2022-08-12T20:22:23.964Z,25.30
2022-08-12T20:24:58.008Z,25.20
2022-08-12T20:28:02.730Z,25.20
2022-08-12T20:30:20.267Z,25.10
2022-08-12T20:32:56.247Z,25.00
2022-08-12T20:36:05.939Z,25.00
2022-08-12T20:38:26.123Z,24.90
2022-08-12T20:40:55.672Z,24.90
2022-08-12T20:43:28.163Z,24.90
2022-08-12T20:45:59.452Z,24.80
2022-08-12T20:48:28.776Z,24.90
2022-08-12T20:51:04.559Z,24.80
2022-08-12T20:53:58.053Z,24.70
2022-08-12T20:56:30.936Z,24.70
2022-08-12T20:59:01.359Z,24.60
2022-08-12T21:01:45.974Z,24.60
2022-08-12T21:04:34.364Z,24.50
2022-08-12T21:07:08.477Z,24.50
2022-08-12T21:09:43.891Z,24.40
2022-08-12T21:12:27.797Z,24.30
2022-08-12T21:15:24.175Z,24.30
2022-08-12T21:18:11.069Z,24.30
2022-08-12T21:20:50.164Z,24.30
2022-08-12T21:23:21.364Z,24.20
2022-08-12T21:25:52.681Z,24.20
2022-08-12T21:28:31.178Z,24.10
2022-08-12T21:32:34.710Z,24.10
2022-08-12T21:34:07.605Z,24.10
2022-08-12T21:36:39.589Z,24.00
2022-08-12T21:39:21.695Z,23.90
2022-08-12T21:42:06.513Z,23.90
2022-08-12T21:45:45.602Z,23.80
2022-08-12T21:47:25.115Z,23.80
2022-08-12T21:50:04.253Z,23.70
2022-08-12T21:52:37.343Z,23.70
2022-08-12T21:55:19.085Z,23.60
2022-08-12T21:57:54.577Z,23.60
2022-08-12T22:00:34.310Z,23.50
2022-08-12T22:04:04.217Z,23.50
2022-08-12T22:06:31.259Z,23.40
2022-08-12T22:09:15.414Z,23.40
2022-08-12T22:11:56.033Z,23.40
2022-08-12T22:14:26.725Z,23.30
2022-08-12T22:16:57.012Z,23.30
2022-08-12T22:19:26.708Z,23.20
2022-08-12T22:21:58.819Z,23.20
2022-08-12T22:24:31.144Z,23.10
2022-08-12T22:27:07.946Z,23.10
2022-08-12T22:30:07.746Z,23.00
2022-08-12T22:32:41.944Z,22.90
2022-08-12T22:35:29.516Z,22.90
2022-08-12T22:38:10.767Z,22.90
2022-08-12T22:40:39.673Z,22.80
2022-08-12T22:43:29.694Z,22.80
2022-08-12T22:46:26.606Z,22.70
2022-08-12T22:48:59.336Z,22.70
2022-08-12T22:52:00.969Z,22.70
2022-08-12T22:54:36.350Z,22.70
2022-08-12T22:57:12.601Z,22.70
2022-08-12T22:59:55.453Z,22.70
2022-08-12T23:02:28.726Z,22.60
2022-08-12T23:04:58.274Z,22.60
2022-08-12T23:07:26.871Z,22.60
2022-08-12T23:10:05.412Z,22.50
2022-08-12T23:12:51.600Z,22.50
2022-08-12T23:15:21.832Z,22.40
2022-08-12T23:17:51.659Z,22.40
2022-08-12T23:20:22.624Z,22.30
2022-08-12T23:23:02.899Z,22.30
2022-08-12T23:25:55.020Z,22.20
2022-08-12T23:28:39.324Z,22.20
2022-08-12T23:31:10.952Z,22.10
2022-08-12T23:34:02.746Z,22.10
2022-08-12T23:36:39.074Z,22.10
2022-08-12T23:40:13.977Z,22.10
2022-08-12T23:42:16.442Z,22.00
2022-08-12T23:44:48.374Z,22.00
2022-08-12T23:47:21.437Z,22.00
2022-08-12T23:49:57.101Z,22.00
2022-08-12T23:52:34.195Z,22.00
2022-08-12T23:55:24.109Z,22.00
2022-08-12T23:58:22.650Z,21.90
